Nearby METAR Reports

 

KGCY - Greeneville, Tennessee, USA
Distance from station: NNW 2mi, 4km
Updated: Sun, 21-Apr-2024 11:15pm EDT
Clear
Clear
 Wind from NNW
Wind: NNW 7 mph, 11 km/h, Gust: 16 mph, 26 km/h
Temperature: 48°F, 9°C
Wind Chill: 45°F, 7°C
Dew Point: 28°F, -2°C
Humidity: 46%
Barometer: 30.07 inHg, 1018.3 hPa
Clouds: Clear
Visibility: 10 miles, 16 km
2024/04/22 03:15 KGCY 220315Z AUTO 34006G14KT 10SM CLR 09/M02 A3007 RMK A01
KTRI - Bristol, Tennessee, USA
Distance from station: NE 31mi, 50km
Updated: Sun, 21-Apr-2024 10:53pm EDT
Mostly cloudy
Mostly cloudy
 Wind from N
Wind: N 8 mph, 13 km/h
Temperature: 48°F, 9°C
Wind Chill: 44°F, 7°C
Dew Point: 28°F, -2°C
Humidity: 46%
Barometer: 30.07 inHg, 1018.3 hPa
Clouds: Mostly cloudy
Visibility: 10 miles, 16 km
Cloud details: Few Clouds 6500 ft
Mostly cloudy 18000 ft
2024/04/22 02:53 KTRI 220253Z 35007KT 10SM FEW065 BKN180 09/M02 A3007 RMK AO2 SLP173 T00891017 51026
 
K0A9 - Elizabethton, Tennessee, USA
Distance from station: ENE 38mi, 61km
Updated: Sun, 21-Apr-2024 11:15pm EDT
Overcast
Overcast
 Wind from varies
Wind: varies 3 mph, 6 km/h
Temperature: 48°F, 9°C
Dew Point: 28°F, -2°C
Humidity: 46%
Barometer: 30.06 inHg, 1017.9 hPa
Clouds: Overcast
Visibility: 10 miles, 16 km
Cloud details: Overcast 6500 ft
2024/04/22 03:15 K0A9 220315Z AUTO VRB03KT 10SM OVC065 09/M02 A3006 RMK AO2
K0VG - Jonesville, Virginia, USA
Distance from station: NW 41mi, 65km
Updated: Sun, 21-Apr-2024 11:15pm EDT
Clear
Clear
 Wind from NNW
Wind: NNW 6 mph, 9 km/h
Temperature: 45°F, 7°C
Wind Chill: 42°F, 6°C
Dew Point: 27°F, -3°C
Humidity: 49%
Barometer: 30.12 inHg, 1020 hPa
Clouds: Clear
Visibility: 10 miles, 16 km
2024/04/22 03:15 K0VG 220315Z AUTO 34005KT 10SM CLR 07/M03 A3012 RMK AO2
 
KGKT - Sevierville, Tennessee, USA
Distance from station: WSW 46mi, 75km
Updated: Sun, 21-Apr-2024 11:15pm EDT
Overcast
Overcast
 Wind from calm
Wind: Calm
Temperature: 48°F, 9°C
Dew Point: 30°F, -1°C
Humidity: 50%
Barometer: 30.11 inHg, 1019.6 hPa
Clouds: Overcast
Visibility: 10 miles, 16 km
Cloud details: Overcast 6500 ft
2024/04/22 03:15 KGKT 220315Z AUTO 00000KT 10SM OVC065 09/M01 A3011 RMK A01